Time;durP1;ratioP1;P1;durP2;ratioP2;P2;SDS_P1;SDS_P2;PMS_P1;PMS_P2;Temp;Humidity;BMP_temperature;BMP_pressure;BME280_temperature;BME280_humidity;BME280_pressure;Samples;Min_cycle;Max_cycle;Signal;HPM_P1;HPM_P2
2021/01/20 00:02:17;;;;;;;15.55;3.53;;;;;;;;;;4845855;29;20144;-91
2021/01/20 00:04:43;;;;;;;17.23;4.20;;;;;;;;;;4870336;29;20033;-92
2021/01/20 00:07:10;;;;;;;15.68;4.18;;;;;;;;;;4858211;29;20042;-90
2021/01/20 00:09:36;;;;;;;17.70;5.82;;;;;;;;;;4842013;29;20553;-91
2021/01/20 00:12:02;;;;;;;15.38;5.00;;;;;;;;;;4861849;29;20671;-92
2021/01/20 00:14:28;;;;;;;12.05;3.78;;;;;;;;;;4863483;29;20049;-91
2021/01/20 00:16:54;;;;;;;;;;;;;;;;;;4849312;29;20042;-91
2021/01/20 00:19:20;;;;;;;19.52;7.95;;;;;;;;;;4858620;29;20289;-91
2021/01/20 00:21:47;;;;;;;16.58;6.40;;;;;;;;;;4863006;29;20065;-92
2021/01/20 00:24:14;;;;;;;15.88;4.03;;;;;;;;;;4859117;29;20097;-89
2021/01/20 00:26:40;;;;;;;16.15;4.68;;;;;;;;;;4854025;29;20034;-92
2021/01/20 00:29:06;;;;;;;;;;;;;;;;;;4864118;29;20033;-90
2021/01/20 00:31:32;;;;;;;16.08;4.53;;;;;;;;;;4862197;29;19932;-90
2021/01/20 00:33:59;;;;;;;12.93;4.32;;;;;;;;;;4859971;28;20097;-91
2021/01/20 00:36:25;;;;;;;15.90;4.63;;;;;;;;;;4860642;29;20038;-90
2021/01/20 00:38:51;;;;;;;15.32;4.65;;;;;;;;;;4861914;29;20108;-91
2021/01/20 00:41:17;;;;;;;15.85;8.00;;;;;;;;;;4849027;28;20056;-91
2021/01/20 00:43:43;;;;;;;18.63;6.88;;;;;;;;;;4858004;29;20149;-90
2021/01/20 00:46:10;;;;;;;18.17;5.45;;;;;;;;;;4857548;29;20042;-91
2021/01/20 00:48:36;;;;;;;13.63;4.60;;;;;;;;;;4846628;29;20084;-90
2021/01/20 00:51:02;;;;;;;17.63;5.25;;;;;;;;;;4845596;29;20025;-90
2021/01/20 00:53:28;;;;;;;;;;;;;;;;;;4859383;29;20046;-90
2021/01/20 00:55:54;;;;;;;15.52;4.63;;;;;;;;;;4860785;29;20015;-91
2021/01/20 00:58:20;;;;;;;14.93;4.93;;;;;;;;;;4864324;29;20025;-91
2021/01/20 01:00:48;;;;;;;13.68;4.78;;;;;;;;;;4838037;29;20090;-92
2021/01/20 01:03:14;;;;;;;15.18;5.47;;;;;;;;;;4858550;29;20061;-91
2021/01/20 01:05:42;;;;;;;13.90;4.78;;;;;;;;;;4843975;29;20097;-91
2021/01/20 01:08:08;;;;;;;16.95;4.65;;;;;;;;;;4853045;29;20032;-91
2021/01/20 01:10:34;;;;;;;15.15;5.00;;;;;;;;;;4865232;29;20045;-91
2021/01/20 01:13:01;;;;;;;14.13;4.25;;;;;;;;;;4856537;29;20041;-90
2021/01/20 01:15:27;;;;;;;13.88;4.95;;;;;;;;;;4859965;29;20036;-91
2021/01/20 01:17:53;;;;;;;16.15;4.80;;;;;;;;;;4848195;28;20034;-89
2021/01/20 01:20:20;;;;;;;13.55;4.10;;;;;;;;;;4862093;29;20070;-90
2021/01/20 01:22:46;;;;;;;13.27;4.45;;;;;;;;;;4864518;29;20112;-90
2021/01/20 01:25:12;;;;;;;15.70;4.32;;;;;;;;;;4859957;29;20061;-89
2021/01/20 01:27:38;;;;;;;12.35;3.83;;;;;;;;;;4867131;29;20036;-91
2021/01/20 01:30:05;;;;;;;11.80;3.55;;;;;;;;;;4852914;29;20050;-91
2021/01/20 01:32:31;;;;;;;12.38;3.63;;;;;;;;;;4841008;29;20065;-91
2021/01/20 01:34:57;;;;;;;12.50;3.55;;;;;;;;;;4860424;29;20068;-91
2021/01/20 01:37:23;;;;;;;;;;;;;;;;;;4865972;29;20798;-90
2021/01/20 01:39:50;;;;;;;13.02;3.65;;;;;;;;;;4866127;29;20006;-90
2021/01/20 01:42:25;;;;;;;12.38;3.50;;;;;;;;;;4859232;29;20660;-90
2021/01/20 01:44:51;;;;;;;11.98;3.25;;;;;;;;;;4864542;29;20037;-90
2021/01/20 01:47:17;;;;;;;12.27;3.50;;;;;;;;;;4857410;29;20042;-90
2021/01/20 01:49:43;;;;;;;12.50;3.83;;;;;;;;;;4856505;29;20049;-91
2021/01/20 01:52:09;;;;;;;11.90;3.17;;;;;;;;;;4866002;29;20041;-91
2021/01/20 01:54:36;;;;;;;11.75;3.78;;;;;;;;;;4851641;29;20864;-91
2021/01/20 01:57:02;;;;;;;14.48;3.97;;;;;;;;;;4853478;28;20041;-91
2021/01/20 01:59:30;;;;;;;12.82;3.83;;;;;;;;;;4856624;29;20049;-92
2021/01/20 02:01:56;;;;;;;11.93;3.60;;;;;;;;;;4862936;29;20094;-91
2021/01/20 02:04:22;;;;;;;14.65;4.07;;;;;;;;;;4873327;29;20060;-91
2021/01/20 02:06:53;;;;;;;13.63;3.30;;;;;;;;;;4862945;28;20044;-90
2021/01/20 02:09:19;;;;;;;15.55;4.07;;;;;;;;;;4863721;29;20041;-90
2021/01/20 02:11:46;;;;;;;12.38;3.75;;;;;;;;;;4854796;28;20096;-91
2021/01/20 02:14:22;;;;;;;12.65;3.72;;;;;;;;;;4867543;29;20436;-91
2021/01/20 02:17:10;;;;;;;13.48;3.92;;;;;;;;;;4879116;29;20052;-90
2021/01/20 02:19:36;;;;;;;;;;;;;;;;;;4862984;29;20105;-89
2021/01/20 02:22:10;;;;;;;14.32;4.07;;;;;;;;;;4855785;29;19931;-90
2021/01/20 02:24:42;;;;;;;13.23;4.25;;;;;;;;;;4857894;29;20064;-90
2021/01/20 02:27:21;;;;;;;12.18;3.80;;;;;;;;;;4852919;29;20057;-90
2021/01/20 02:29:47;;;;;;;12.15;3.47;;;;;;;;;;4860279;29;20045;-90
2021/01/20 02:32:14;;;;;;;12.23;3.50;;;;;;;;;;4858107;29;20045;-90
2021/01/20 02:34:41;;;;;;;13.77;3.60;;;;;;;;;;4867659;29;20041;-90
2021/01/20 02:37:08;;;;;;;11.70;3.42;;;;;;;;;;4859601;29;20470;-91
2021/01/20 02:39:35;;;;;;;9.30;3.08;;;;;;;;;;4846185;29;20525;-90
2021/01/20 02:42:05;;;;;;;13.07;3.67;;;;;;;;;;4851603;29;20054;-91
2021/01/20 02:44:38;;;;;;;12.35;3.63;;;;;;;;;;4863429;29;20041;-91
2021/01/20 02:47:05;;;;;;;12.88;3.58;;;;;;;;;;4861502;29;20045;-90
2021/01/20 02:49:32;;;;;;;11.43;3.20;;;;;;;;;;4845033;29;20042;-91
2021/01/20 02:52:04;;;;;;;11.65;3.35;;;;;;;;;;4864697;29;20046;-90
2021/01/20 02:54:31;;;;;;;10.77;3.08;;;;;;;;;;4869524;29;20061;-92
2021/01/20 02:56:58;;;;;;;10.02;3.05;;;;;;;;;;4861174;29;20045;-88
2021/01/20 02:59:24;;;;;;;;;;;;;;;;;;4859962;29;20033;-90
2021/01/20 03:01:53;;;;;;;9.95;2.80;;;;;;;;;;4860279;29;20400;-90
2021/01/20 03:04:20;;;;;;;12.10;3.60;;;;;;;;;;4856229;29;20033;-92
2021/01/20 03:06:47;;;;;;;12.18;3.30;;;;;;;;;;4858872;29;20041;-90
2021/01/20 03:09:16;;;;;;;12.32;3.38;;;;;;;;;;4854429;28;20145;-91
2021/01/20 03:11:44;;;;;;;9.48;3.33;;;;;;;;;;4855044;29;20034;-91
2021/01/20 03:14:10;;;;;;;11.50;3.90;;;;;;;;;;4850413;29;20473;-92
2021/01/20 03:16:36;;;;;;;12.85;4.10;;;;;;;;;;4861586;29;20128;-91
2021/01/20 03:19:03;;;;;;;12.00;4.38;;;;;;;;;;4850664;29;20109;-92
2021/01/20 03:21:29;;;;;;;12.20;4.25;;;;;;;;;;4861504;29;20045;-92
2021/01/20 03:23:55;;;;;;;11.52;4.25;;;;;;;;;;4867928;29;20052;-92
2021/01/20 03:26:22;;;;;;;10.85;4.25;;;;;;;;;;4845707;29;20034;-92
2021/01/20 03:28:48;;;;;;;12.70;5.00;;;;;;;;;;4874675;29;20041;-91
2021/01/20 03:31:14;;;;;;;16.17;4.78;;;;;;;;;;4871379;29;20044;-92
2021/01/20 03:33:40;;;;;;;14.52;4.55;;;;;;;;;;4858242;29;20447;-91
2021/01/20 03:36:07;;;;;;;16.83;4.70;;;;;;;;;;4875371;29;20071;-92
2021/01/20 03:38:33;;;;;;;11.73;4.10;;;;;;;;;;4872871;29;20059;-92
2021/01/20 03:40:59;;;;;;;14.38;4.50;;;;;;;;;;4874440;29;20025;-92
2021/01/20 03:43:27;;;;;;;14.25;4.80;;;;;;;;;;4861527;29;20017;-93
2021/01/20 03:45:53;;;;;;;15.25;4.95;;;;;;;;;;4861051;29;20041;-92
2021/01/20 03:48:19;;;;;;;11.80;5.07;;;;;;;;;;4874653;29;20062;-92
2021/01/20 03:50:45;;;;;;;13.40;4.85;;;;;;;;;;4869179;29;20097;-92
2021/01/20 03:53:12;;;;;;;13.63;4.82;;;;;;;;;;4878969;29;20057;-92
2021/01/20 03:55:38;;;;;;;12.18;4.85;;;;;;;;;;4876419;29;20044;-92
2021/01/20 03:58:04;;;;;;;11.48;4.93;;;;;;;;;;4871359;28;20089;-91
2021/01/20 04:00:30;;;;;;;14.50;4.90;;;;;;;;;;4865578;29;20084;-92
2021/01/20 04:03:00;;;;;;;14.73;4.75;;;;;;;;;;4854735;28;20041;-92
2021/01/20 04:05:26;;;;;;;13.60;5.10;;;;;;;;;;4864284;29;20041;-92
2021/01/20 04:07:53;;;;;;;13.25;5.20;;;;;;;;;;4865423;29;20017;-91
2021/01/20 04:10:19;;;;;;;;;;;;;;;;;;4868904;29;20029;-92
2021/01/20 04:12:45;;;;;;;12.40;4.78;;;;;;;;;;4862331;29;19920;-93
2021/01/20 04:15:11;;;;;;;12.45;5.00;;;;;;;;;;4863409;29;20080;-92
2021/01/20 04:17:38;;;;;;;13.48;4.82;;;;;;;;;;4852423;29;20097;-92
2021/01/20 04:20:06;;;;;;;12.75;5.30;;;;;;;;;;4848743;29;20093;-91
2021/01/20 04:22:33;;;;;;;11.02;4.60;;;;;;;;;;4866492;29;20061;-93
2021/01/20 04:24:59;;;;;;;12.68;4.45;;;;;;;;;;4864218;29;20054;-91
2021/01/20 04:27:25;;;;;;;11.63;5.28;;;;;;;;;;4864800;29;20037;-91
2021/01/20 04:29:51;;;;;;;13.95;5.25;;;;;;;;;;4847239;29;20132;-91
2021/01/20 04:32:17;;;;;;;12.85;4.93;;;;;;;;;;4857616;29;20049;-92
2021/01/20 04:34:44;;;;;;;13.73;5.28;;;;;;;;;;4851243;29;20053;-92
2021/01/20 04:37:10;;;;;;;15.68;5.43;;;;;;;;;;4857678;29;20476;-91
2021/01/20 04:39:36;;;;;;;12.05;5.03;;;;;;;;;;4862429;29;20064;-92
2021/01/20 04:42:02;;;;;;;12.05;5.07;;;;;;;;;;4850487;29;20192;-91
2021/01/20 04:44:28;;;;;;;;;;;;;;;;;;4849576;29;20041;-92
2021/01/20 04:46:55;;;;;;;13.43;4.97;;;;;;;;;;4844178;29;19915;-91
2021/01/20 04:49:21;;;;;;;13.10;5.22;;;;;;;;;;4858535;29;20054;-93
2021/01/20 04:51:48;;;;;;;12.40;4.93;;;;;;;;;;4868925;29;20148;-91
2021/01/20 04:54:16;;;;;;;14.38;5.22;;;;;;;;;;4860518;29;20057;-92
2021/01/20 04:56:42;;;;;;;13.73;5.70;;;;;;;;;;4856167;29;21281;-92
2021/01/20 04:59:08;;;;;;;13.65;5.13;;;;;;;;;;4860982;28;20034;-91
2021/01/20 05:01:35;;;;;;;13.02;5.25;;;;;;;;;;4846706;29;20112;-93
2021/01/20 05:04:02;;;;;;;12.07;5.50;;;;;;;;;;4856717;29;20046;-92
2021/01/20 05:06:29;;;;;;;13.95;5.20;;;;;;;;;;4862071;29;20041;-92
2021/01/20 05:08:55;;;;;;;14.23;6.20;;;;;;;;;;4863575;29;20033;-91
2021/01/20 05:11:41;;;;;;;14.27;6.20;;;;;;;;;;4855746;29;20056;-91
2021/01/20 05:14:12;;;;;;;17.25;6.65;;;;;;;;;;4850059;29;20041;-91
2021/01/20 05:16:38;;;;;;;15.25;7.10;;;;;;;;;;4860206;29;20162;-91
2021/01/20 05:19:05;;;;;;;12.95;6.68;;;;;;;;;;4841224;29;20567;-92
2021/01/20 05:21:31;;;;;;;15.10;6.30;;;;;;;;;;4853840;29;20085;-91
2021/01/20 05:24:16;;;;;;;13.27;5.85;;;;;;;;;;4862629;29;20040;-91
2021/01/20 05:26:43;;;;;;;14.52;5.78;;;;;;;;;;4857952;29;20033;-91
2021/01/20 05:29:09;;;;;;;13.23;6.05;;;;;;;;;;4856576;29;20033;-92
2021/01/20 05:31:35;;;;;;;15.43;6.82;;;;;;;;;;4844383;29;20022;-92
2021/01/20 05:34:02;;;;;;;11.55;6.00;;;;;;;;;;4843833;29;20033;-91
2021/01/20 05:36:28;;;;;;;14.95;5.97;;;;;;;;;;4860481;29;20039;-90
2021/01/20 05:38:57;;;;;;;14.35;6.25;;;;;;;;;;4845214;29;20045;-90
2021/01/20 05:41:30;;;;;;;14.75;7.00;;;;;;;;;;4867361;29;20041;-90
2021/01/20 05:44:09;;;;;;;16.85;7.90;;;;;;;;;;4853360;29;20085;-91
2021/01/20 05:46:36;;;;;;;17.70;8.35;;;;;;;;;;4862282;29;20030;-91
2021/01/20 05:49:03;;;;;;;15.88;7.10;;;;;;;;;;4859222;29;20132;-91
2021/01/20 05:51:39;;;;;;;15.77;7.45;;;;;;;;;;4846537;29;20045;-92
2021/01/20 05:54:06;;;;;;;15.68;6.97;;;;;;;;;;4862184;29;20045;-91
2021/01/20 05:56:32;;;;;;;13.30;6.32;;;;;;;;;;4859408;29;20037;-91
2021/01/20 05:58:58;;;;;;;;;;;;;;;;;;4860526;28;20696;-91
2021/01/20 06:01:25;;;;;;;19.40;7.20;;;;;;;;;;4853211;29;19963;-91
2021/01/20 06:03:51;;;;;;;14.60;7.35;;;;;;;;;;4859393;29;20128;-92
2021/01/20 06:06:19;;;;;;;13.40;6.82;;;;;;;;;;4851404;29;20072;-91
2021/01/20 06:08:45;;;;;;;15.35;7.93;;;;;;;;;;4863253;29;20141;-92
2021/01/20 06:11:13;;;;;;;15.18;7.65;;;;;;;;;;4860884;29;20110;-92
2021/01/20 06:13:39;;;;;;;16.27;7.32;;;;;;;;;;4863746;29;20517;-92
2021/01/20 06:16:05;;;;;;;;;;;;;;;;;;4859226;29;20109;-93
2021/01/20 06:18:39;;;;;;;18.02;7.72;;;;;;;;;;4850378;29;19967;-92
2021/01/20 06:21:05;;;;;;;18.27;8.48;;;;;;;;;;4846808;29;20529;-93
2021/01/20 06:23:33;;;;;;;19.70;9.02;;;;;;;;;;4857128;29;20093;-93
2021/01/20 06:26:02;;;;;;;17.92;8.25;;;;;;;;;;4845958;29;20033;-93
2021/01/20 06:28:30;;;;;;;18.13;9.27;;;;;;;;;;4853725;29;20036;-92
2021/01/20 06:30:58;;;;;;;15.00;8.73;;;;;;;;;;4860851;29;20161;-93
2021/01/20 06:33:28;;;;;;;16.45;8.73;;;;;;;;;;4846663;29;20096;-92
2021/01/20 06:35:54;;;;;;;16.98;8.35;;;;;;;;;;4857801;29;20045;-92
2021/01/20 06:38:30;;;;;;;16.63;8.95;;;;;;;;;;4849064;29;20042;-91
2021/01/20 06:40:58;;;;;;;16.40;8.30;;;;;;;;;;4866372;29;20054;-92
2021/01/20 06:43:32;;;;;;;18.38;8.27;;;;;;;;;;4867176;29;20061;-91
2021/01/20 06:46:17;;;;;;;14.07;7.55;;;;;;;;;;4858917;29;20037;-90
2021/01/20 06:48:56;;;;;;;15.02;8.52;;;;;;;;;;4864683;29;20058;-91
2021/01/20 06:51:22;;;;;;;19.48;8.60;;;;;;;;;;4859884;28;20052;-90
2021/01/20 06:54:01;;;;;;;18.48;8.68;;;;;;;;;;4847421;29;20041;-91
2021/01/20 06:56:31;;;;;;;16.42;8.95;;;;;;;;;;4860712;29;20044;-92
2021/01/20 06:59:16;;;;;;;18.80;9.05;;;;;;;;;;4846147;29;20603;-90
2021/01/20 07:01:42;;;;;;;16.80;8.77;;;;;;;;;;4860521;29;20783;-92
2021/01/20 07:04:08;;;;;;;;;;;;;;;;;;4854955;29;20052;-92
2021/01/20 07:06:38;;;;;;;15.25;8.10;;;;;;;;;;4845498;29;19924;-93
2021/01/20 07:09:05;;;;;;;17.38;7.78;;;;;;;;;;4843354;29;20128;-92
2021/01/20 07:11:32;;;;;;;17.38;8.10;;;;;;;;;;4848819;29;20044;-91
2021/01/20 07:13:58;;;;;;;;;;;;;;;;;;4857274;29;20057;-92
2021/01/20 07:16:24;;;;;;;16.20;7.60;;;;;;;;;;4851136;29;19916;-91
2021/01/20 07:18:52;;;;;;;15.98;8.15;;;;;;;;;;4860756;28;20596;-91
2021/01/20 07:21:20;;;;;;;17.50;8.50;;;;;;;;;;4841364;29;20143;-91
2021/01/20 07:23:46;;;;;;;24.52;8.50;;;;;;;;;;4863159;28;20041;-92
2021/01/20 07:26:14;;;;;;;20.45;8.43;;;;;;;;;;4834131;29;20056;-91
2021/01/20 07:28:40;;;;;;;19.45;9.13;;;;;;;;;;4856149;29;20822;-94
2021/01/20 07:31:13;;;;;;;19.50;8.60;;;;;;;;;;4848136;29;20046;-89
2021/01/20 07:33:39;;;;;;;17.65;9.25;;;;;;;;;;4860903;29;20038;-92
2021/01/20 07:36:12;;;;;;;17.55;8.85;;;;;;;;;;4811715;29;20710;-92
2021/01/20 07:38:38;;;;;;;22.35;8.93;;;;;;;;;;4845978;29;20068;-89
2021/01/20 07:41:34;;;;;;;18.30;9.20;;;;;;;;;;4853844;29;20021;-90
2021/01/20 07:44:06;;;;;;;17.08;8.15;;;;;;;;;;4845545;29;20052;-90
2021/01/20 07:46:33;;;;;;;16.98;8.15;;;;;;;;;;4824139;29;20065;-89
2021/01/20 07:49:09;;;;;;;13.25;6.82;;;;;;;;;;4832734;29;20133;-90
2021/01/20 07:51:36;;;;;;;16.15;8.32;;;;;;;;;;4841576;29;20034;-90
2021/01/20 07:54:02;;;;;;;;;;;;;;;;;;4843058;29;20044;-90
2021/01/20 07:56:29;;;;;;;17.40;8.35;;;;;;;;;;4830694;29;19948;-91
2021/01/20 07:58:56;;;;;;;17.48;8.55;;;;;;;;;;4825566;29;20080;-88
2021/01/20 08:01:28;;;;;;;15.82;7.30;;;;;;;;;;4832179;29;20222;-89
2021/01/20 08:03:56;;;;;;;16.88;7.38;;;;;;;;;;4839705;29;20065;-89
2021/01/20 08:06:22;;;;;;;17.67;7.90;;;;;;;;;;4831157;29;20113;-88
2021/01/20 08:08:50;;;;;;;21.58;9.40;;;;;;;;;;4836704;29;20115;-89
2021/01/20 08:11:16;;;;;;;19.65;9.45;;;;;;;;;;4823076;29;20887;-89
2021/01/20 08:13:43;;;;;;;17.02;8.90;;;;;;;;;;4824833;29;20131;-87
2021/01/20 08:16:10;;;;;;;16.70;8.55;;;;;;;;;;4826852;29;20034;-88
2021/01/20 08:18:36;;;;;;;18.10;8.10;;;;;;;;;;4839506;29;20034;-89
2021/01/20 08:21:06;;;;;;;18.88;7.80;;;;;;;;;;4842958;29;20062;-88
2021/01/20 08:23:39;;;;;;;20.17;8.18;;;;;;;;;;4838259;29;20048;-88
2021/01/20 08:26:07;;;;;;;19.90;8.10;;;;;;;;;;4862031;29;20039;-88
2021/01/20 08:28:34;;;;;;;19.25;7.65;;;;;;;;;;4861409;29;20022;-88
2021/01/20 08:31:20;;;;;;;15.32;7.55;;;;;;;;;;4854741;29;20045;-88
2021/01/20 08:33:46;;;;;;;17.33;7.75;;;;;;;;;;4852327;29;20049;-87
2021/01/20 08:36:21;;;;;;;15.13;7.22;;;;;;;;;;4839080;29;20033;-87
2021/01/20 08:38:48;;;;;;;13.38;7.40;;;;;;;;;;4849324;29;20045;-87
2021/01/20 08:41:15;;;;;;;16.35;7.78;;;;;;;;;;4834221;29;20123;-87
2021/01/20 08:43:42;;;;;;;17.45;8.63;;;;;;;;;;4854830;29;20034;-87
2021/01/20 08:46:22;;;;;;;14.55;7.43;;;;;;;;;;4834864;29;20061;-88
2021/01/20 08:48:54;;;;;;;17.02;7.70;;;;;;;;;;4848353;28;20060;-88
2021/01/20 08:51:20;;;;;;;19.23;9.45;;;;;;;;;;4853461;29;20041;-87
2021/01/20 08:53:46;;;;;;;20.35;10.43;;;;;;;;;;4842955;29;20037;-87
2021/01/20 08:56:12;;;;;;;20.65;10.93;;;;;;;;;;4860064;29;20696;-86
2021/01/20 09:01:30;;;;;;;19.10;9.15;;;;;;;;;;4782853;29;19976;-89
2021/01/20 09:03:59;;;;;;;21.15;11.05;;;;;;;;;;4849525;29;20063;-88
2021/01/20 09:06:26;;;;;;;21.67;10.82;;;;;;;;;;4844825;29;20136;-87
2021/01/20 09:08:53;;;;;;;25.38;12.52;;;;;;;;;;4858640;29;20069;-89
2021/01/20 09:11:20;;;;;;;23.35;12.60;;;;;;;;;;4853919;29;20053;-88
2021/01/20 09:13:46;;;;;;;20.27;10.25;;;;;;;;;;4862465;29;20028;-87
2021/01/20 09:16:13;;;;;;;17.25;8.63;;;;;;;;;;4850644;29;20040;-88
2021/01/20 09:18:39;;;;;;;14.73;6.30;;;;;;;;;;4862060;29;20577;-87
2021/01/20 09:21:05;;;;;;;;;;;;;;;;;;4847163;29;20042;-89
2021/01/20 09:23:32;;;;;;;11.52;3.65;;;;;;;;;;4867099;29;19920;-88
2021/01/20 09:26:01;;;;;;;11.45;4.22;;;;;;;;;;4851849;29;20093;-90
2021/01/20 09:28:30;;;;;;;12.55;5.00;;;;;;;;;;4854379;29;20093;-88
2021/01/20 09:30:56;;;;;;;10.68;4.47;;;;;;;;;;4864170;29;20380;-88
2021/01/20 09:33:24;;;;;;;12.85;4.82;;;;;;;;;;4856115;29;20045;-88
2021/01/20 09:35:50;;;;;;;13.70;4.43;;;;;;;;;;4866549;29;20046;-89
2021/01/20 09:38:18;;;;;;;11.48;4.40;;;;;;;;;;4862415;29;20042;-90
2021/01/20 09:40:44;;;;;;;12.57;4.78;;;;;;;;;;4865177;29;20041;-89
2021/01/20 09:43:10;;;;;;;10.57;3.53;;;;;;;;;;4862306;29;20607;-87
2021/01/20 09:45:37;;;;;;;10.13;3.35;;;;;;;;;;4855519;29;20502;-87
2021/01/20 09:48:06;;;;;;;12.43;4.30;;;;;;;;;;4849798;29;20057;-88
2021/01/20 09:50:34;;;;;;;11.80;5.13;;;;;;;;;;4842547;29;20133;-87
2021/01/20 09:53:01;;;;;;;13.27;5.97;;;;;;;;;;4847782;29;20104;-90
2021/01/20 09:55:27;;;;;;;16.25;6.03;;;;;;;;;;4865963;29;20682;-90
2021/01/20 09:57:53;;;;;;;14.55;6.20;;;;;;;;;;4858162;29;21443;-90
2021/01/20 10:00:20;;;;;;;15.55;5.85;;;;;;;;;;4856091;29;20058;-89
2021/01/20 10:02:46;;;;;;;12.70;4.55;;;;;;;;;;4849489;29;20100;-89
2021/01/20 10:05:12;;;;;;;14.27;4.70;;;;;;;;;;4842843;29;20069;-89
2021/01/20 10:07:39;;;;;;;14.23;5.80;;;;;;;;;;4862005;29;20831;-90
2021/01/20 10:10:09;;;;;;;19.65;7.35;;;;;;;;;;4847534;29;20042;-91
2021/01/20 10:12:36;;;;;;;17.67;7.85;;;;;;;;;;4849280;29;20041;-90
2021/01/20 10:15:02;;;;;;;15.82;5.90;;;;;;;;;;4844222;29;20065;-91
2021/01/20 10:17:28;;;;;;;12.18;5.15;;;;;;;;;;4858490;29;20302;-88
2021/01/20 10:19:54;;;;;;;17.85;6.22;;;;;;;;;;4848847;29;20089;-90
2021/01/20 10:22:20;;;;;;;15.38;6.57;;;;;;;;;;4863254;29;20491;-90
2021/01/20 10:24:47;;;;;;;15.25;5.97;;;;;;;;;;4847967;29;20045;-90
2021/01/20 10:27:13;;;;;;;12.98;5.40;;;;;;;;;;4861457;29;20455;-90
2021/01/20 10:29:39;;;;;;;15.00;5.40;;;;;;;;;;4854353;29;20044;-89
2021/01/20 10:32:06;;;;;;;13.55;5.07;;;;;;;;;;4868474;29;20040;-90
2021/01/20 10:34:32;;;;;;;16.15;6.68;;;;;;;;;;4866858;29;20148;-91
2021/01/20 10:36:58;;;;;;;15.52;5.78;;;;;;;;;;4864089;29;20037;-91
2021/01/20 10:39:25;;;;;;;13.60;5.28;;;;;;;;;;4860307;29;20072;-91
2021/01/20 10:41:54;;;;;;;15.32;6.07;;;;;;;;;;4864095;29;20073;-91
2021/01/20 10:44:21;;;;;;;14.07;5.80;;;;;;;;;;4876871;29;20109;-92
2021/01/20 10:46:48;;;;;;;16.90;5.65;;;;;;;;;;4868400;29;20103;-90
2021/01/20 10:49:14;;;;;;;15.27;6.25;;;;;;;;;;4858413;29;20149;-90
2021/01/20 10:51:41;;;;;;;14.35;6.70;;;;;;;;;;4857222;29;20638;-91
2021/01/20 10:54:07;;;;;;;15.40;6.15;;;;;;;;;;4850490;29;20054;-91
2021/01/20 10:56:34;;;;;;;15.63;7.50;;;;;;;;;;4836409;29;20038;-88
2021/01/20 10:59:01;;;;;;;18.58;7.18;;;;;;;;;;4854904;29;20029;-90
2021/01/20 11:01:27;;;;;;;17.02;6.30;;;;;;;;;;4852452;29;20530;-89
2021/01/20 11:03:54;;;;;;;13.50;5.75;;;;;;;;;;4846087;29;20097;-90
2021/01/20 11:06:20;;;;;;;;;;;;;;;;;;4866273;29;20661;-91
2021/01/20 11:08:47;;;;;;;14.55;5.88;;;;;;;;;;4863662;29;20389;-90
2021/01/20 11:11:14;;;;;;;16.38;5.90;;;;;;;;;;4841000;29;20483;-88
2021/01/20 11:13:40;;;;;;;12.38;5.90;;;;;;;;;;4844771;29;20798;-90
2021/01/20 11:16:07;;;;;;;16.17;6.10;;;;;;;;;;4851782;29;20041;-90
2021/01/20 11:18:34;;;;;;;15.07;6.13;;;;;;;;;;4847502;29;20120;-89
2021/01/20 11:21:01;;;;;;;16.25;7.03;;;;;;;;;;4837638;29;20045;-91
2021/01/20 11:23:34;;;;;;;17.17;6.38;;;;;;;;;;4854867;29;20075;-90
2021/01/20 11:26:01;;;;;;;16.27;7.28;;;;;;;;;;4838317;29;20021;-88
2021/01/20 11:28:27;;;;;;;16.23;6.82;;;;;;;;;;4868465;29;20694;-89
2021/01/20 11:30:55;;;;;;;13.98;5.60;;;;;;;;;;4845151;28;20044;-88
2021/01/20 11:33:21;;;;;;;15.15;5.85;;;;;;;;;;4841080;29;20315;-89
2021/01/20 11:35:47;;;;;;;13.32;4.75;;;;;;;;;;4837435;29;20033;-89
2021/01/20 11:38:13;;;;;;;14.07;5.18;;;;;;;;;;4851951;29;20033;-87
2021/01/20 11:40:40;;;;;;;15.48;5.18;;;;;;;;;;4840009;29;20418;-87
2021/01/20 11:43:08;;;;;;;15.13;5.40;;;;;;;;;;4848298;29;20037;-89
2021/01/20 11:45:35;;;;;;;15.13;5.03;;;;;;;;;;4840635;29;20064;-89
2021/01/20 11:48:02;;;;;;;13.35;4.53;;;;;;;;;;4837476;29;20600;-89
2021/01/20 11:50:28;;;;;;;11.90;5.13;;;;;;;;;;4860800;29;20049;-89
2021/01/20 11:52:55;;;;;;;11.95;4.80;;;;;;;;;;4842114;29;20475;-89
2021/01/20 11:55:22;;;;;;;12.85;5.22;;;;;;;;;;4863716;29;20649;-90
2021/01/20 11:57:48;;;;;;;14.40;5.07;;;;;;;;;;4839407;29;20037;-89
2021/01/20 12:00:15;;;;;;;14.55;5.50;;;;;;;;;;4842559;29;20048;-90
2021/01/20 12:02:41;;;;;;;14.57;5.43;;;;;;;;;;4858308;29;20038;-89
2021/01/20 12:05:09;;;;;;;14.93;5.38;;;;;;;;;;4852134;29;20045;-89
2021/01/20 12:07:36;;;;;;;16.40;6.10;;;;;;;;;;4848405;29;20028;-90
2021/01/20 12:10:02;;;;;;;15.02;6.15;;;;;;;;;;4838059;29;20133;-90
2021/01/20 12:12:29;;;;;;;15.55;6.72;;;;;;;;;;4835469;29;20041;-88
2021/01/20 12:14:55;;;;;;;16.48;6.70;;;;;;;;;;4839773;29;20116;-88
2021/01/20 12:17:21;;;;;;;14.88;5.90;;;;;;;;;;4832656;29;20037;-87
2021/01/20 12:19:47;;;;;;;12.73;5.40;;;;;;;;;;4826775;29;20044;-87
2021/01/20 12:22:14;;;;;;;15.30;6.05;;;;;;;;;;4831276;29;20507;-89
2021/01/20 12:24:40;;;;;;;14.93;7.10;;;;;;;;;;4843595;29;20109;-87
2021/01/20 12:27:06;;;;;;;15.43;7.88;;;;;;;;;;4828548;29;20049;-86
2021/01/20 12:29:32;;;;;;;16.55;8.13;;;;;;;;;;4842308;29;20164;-87
2021/01/20 12:31:59;;;;;;;;;;;;;;;;;;4828325;29;20048;-87
2021/01/20 12:34:27;;;;;;;15.43;8.18;;;;;;;;;;4850922;29;20499;-87
2021/01/20 12:36:54;;;;;;;17.27;7.88;;;;;;;;;;4854196;29;20065;-86
2021/01/20 12:39:20;;;;;;;15.68;8.25;;;;;;;;;;4846814;29;20061;-88
2021/01/20 12:41:46;;;;;;;;;;;;;;;;;;4843931;29;20125;-86
2021/01/20 12:44:12;;;;;;;15.15;7.70;;;;;;;;;;4843848;29;20635;-87
2021/01/20 12:46:38;;;;;;;;;;;;;;;;;;4835409;29;20021;-86
2021/01/20 12:49:05;;;;;;;17.10;8.33;;;;;;;;;;4826646;29;20129;-87
2021/01/20 12:51:32;;;;;;;16.75;7.35;;;;;;;;;;4847241;29;20060;-87
2021/01/20 12:54:00;;;;;;;16.90;8.32;;;;;;;;;;4844108;29;20116;-87
2021/01/20 12:56:26;;;;;;;16.13;8.05;;;;;;;;;;4843785;29;20038;-88
2021/01/20 12:58:52;;;;;;;;;;;;;;;;;;4833604;29;20032;-86
2021/01/20 13:01:18;;;;;;;17.42;9.38;;;;;;;;;;4841556;29;20678;-87
2021/01/20 13:03:44;;;;;;;;;;;;;;;;;;4843185;29;20609;-87
2021/01/20 13:06:10;;;;;;;21.85;10.77;;;;;;;;;;4838630;29;19932;-87
2021/01/20 13:08:37;;;;;;;;;;;;;;;;;;4840473;29;20046;-86
2021/01/20 13:11:04;;;;;;;20.70;9.20;;;;;;;;;;4829677;29;19937;-88
2021/01/20 13:13:31;;;;;;;18.88;9.30;;;;;;;;;;4846906;29;20029;-87
2021/01/20 13:15:59;;;;;;;18.23;9.00;;;;;;;;;;4828578;29;20038;-87
2021/01/20 13:18:25;;;;;;;21.48;8.60;;;;;;;;;;4837405;29;20109;-86
2021/01/20 13:20:52;;;;;;;23.40;9.15;;;;;;;;;;4832144;29;20123;-86
2021/01/20 13:23:18;;;;;;;18.45;8.15;;;;;;;;;;4830523;29;20037;-86
2021/01/20 13:25:44;;;;;;;17.52;7.13;;;;;;;;;;4837375;29;20026;-86
2021/01/20 13:28:13;;;;;;;19.92;7.65;;;;;;;;;;4833403;29;20054;-87
2021/01/20 13:30:39;;;;;;;15.25;7.20;;;;;;;;;;4849813;29;20052;-88
2021/01/20 13:33:05;;;;;;;18.33;7.63;;;;;;;;;;4849208;29;20131;-87
2021/01/20 13:35:32;;;;;;;16.45;7.13;;;;;;;;;;4835041;29;20049;-87
2021/01/20 13:37:58;;;;;;;15.95;8.10;;;;;;;;;;4856724;29;20040;-89
2021/01/20 13:40:25;;;;;;;18.35;7.80;;;;;;;;;;4853352;29;20034;-89
2021/01/20 13:42:52;;;;;;;15.30;7.75;;;;;;;;;;4829787;29;20610;-90
2021/01/20 13:45:19;;;;;;;15.52;7.65;;;;;;;;;;4848228;29;20053;-88
2021/01/20 13:47:45;;;;;;;16.02;7.70;;;;;;;;;;4837448;29;20490;-91
2021/01/20 13:50:11;;;;;;;;;;;;;;;;;;4839098;29;25234;-90
2021/01/20 13:52:37;;;;;;;17.80;8.20;;;;;;;;;;4839994;29;19919;-89
2021/01/20 13:55:06;;;;;;;16.60;7.60;;;;;;;;;;4850934;29;20045;-88
2021/01/20 13:57:32;;;;;;;16.20;7.47;;;;;;;;;;4837598;29;20831;-89
2021/01/20 13:59:58;;;;;;;;;;;;;;;;;;4851261;29;20371;-89
2021/01/20 14:02:25;;;;;;;16.33;6.90;;;;;;;;;;4851188;29;19963;-89
2021/01/20 14:04:51;;;;;;;15.32;6.85;;;;;;;;;;4844096;29;20060;-87
2021/01/20 14:07:17;;;;;;;15.70;7.78;;;;;;;;;;4839757;29;20056;-88
2021/01/20 14:09:43;;;;;;;17.50;7.43;;;;;;;;;;4851193;29;20117;-88
2021/01/20 14:12:10;;;;;;;20.17;7.93;;;;;;;;;;4852073;29;20058;-88
2021/01/20 14:14:36;;;;;;;19.85;8.52;;;;;;;;;;4845539;29;20049;-87
2021/01/20 14:17:03;;;;;;;17.52;9.43;;;;;;;;;;4842601;29;20045;-89
2021/01/20 14:19:29;;;;;;;15.70;8.07;;;;;;;;;;4854596;29;20050;-88
2021/01/20 14:21:57;;;;;;;15.95;7.90;;;;;;;;;;4850628;29;20121;-89
2021/01/20 14:24:23;;;;;;;17.50;9.05;;;;;;;;;;4848171;29;20068;-88
2021/01/20 14:26:49;;;;;;;17.48;9.32;;;;;;;;;;4854795;29;20045;-87
2021/01/20 14:29:16;;;;;;;18.23;9.07;;;;;;;;;;4846668;29;20053;-88
2021/01/20 14:31:44;;;;;;;20.45;9.73;;;;;;;;;;4852872;29;20029;-89
2021/01/20 14:34:11;;;;;;;20.42;10.05;;;;;;;;;;4846627;29;20041;-86
2021/01/20 14:36:37;;;;;;;16.70;9.25;;;;;;;;;;4848612;29;20121;-85
2021/01/20 14:39:04;;;;;;;19.42;10.48;;;;;;;;;;4829391;29;20502;-86
2021/01/20 14:41:31;;;;;;;20.27;10.43;;;;;;;;;;4845352;29;20117;-86
2021/01/20 14:44:00;;;;;;;22.08;11.50;;;;;;;;;;4846997;29;20037;-88